sensor_id;sensor_type;location;lat;lon;timestamp;pressure;altitude;pressure_sealevel;temperature;humidity
63006;BME280;53704;52.532;6.426;2023-03-29T00:02:19;101694.09;;;4.58;100.00
63006;BME280;53704;52.532;6.426;2023-03-29T00:04:45;101692.91;;;4.49;100.00
63006;BME280;53704;52.532;6.426;2023-03-29T00:07:11;101680.78;;;4.58;100.00
63006;BME280;53704;52.532;6.426;2023-03-29T00:09:38;101678.00;;;4.72;100.00
63006;BME280;53704;52.532;6.426;2023-03-29T00:12:04;101665.81;;;4.55;100.00
63006;BME280;53704;52.532;6.426;2023-03-29T00:14:30;101662.94;;;4.45;100.00
63006;BME280;53704;52.532;6.426;2023-03-29T00:16:56;101670.94;;;4.58;100.00
63006;BME280;53704;52.532;6.426;2023-03-29T00:19:24;101668.69;;;4.52;100.00
63006;BME280;53704;52.532;6.426;2023-03-29T00:21:53;101664.25;;;4.52;100.00
63006;BME280;53704;52.532;6.426;2023-03-29T00:24:18;101667.00;;;4.51;100.00
63006;BME280;53704;52.532;6.426;2023-03-29T00:26:45;101669.06;;;4.60;100.00
63006;BME280;53704;52.532;6.426;2023-03-29T00:29:10;101661.06;;;4.60;100.00
63006;BME280;53704;52.532;6.426;2023-03-29T00:31:36;101660.19;;;4.60;100.00
63006;BME280;53704;52.532;6.426;2023-03-29T00:34:01;101653.78;;;4.62;100.00
63006;BME280;53704;52.532;6.426;2023-03-29T00:36:27;101652.06;;;4.61;100.00
63006;BME280;53704;52.532;6.426;2023-03-29T00:38:54;101647.94;;;4.70;100.00
63006;BME280;53704;52.532;6.426;2023-03-29T00:41:20;101650.59;;;4.83;100.00
63006;BME280;53704;52.532;6.426;2023-03-29T00:43:57;101646.63;;;4.63;100.00
63006;BME280;53704;52.532;6.426;2023-03-29T00:46:24;101647.84;;;4.71;100.00
63006;BME280;53704;52.532;6.426;2023-03-29T00:48:56;101630.00;;;4.72;100.00
63006;BME280;53704;52.532;6.426;2023-03-29T00:51:25;101616.56;;;4.61;100.00
63006;BME280;53704;52.532;6.426;2023-03-29T00:53:55;101618.19;;;4.63;100.00
63006;BME280;53704;52.532;6.426;2023-03-29T00:56:26;101609.19;;;4.64;100.00
63006;BME280;53704;52.532;6.426;2023-03-29T00:59:04;101614.00;;;4.46;100.00
63006;BME280;53704;52.532;6.426;2023-03-29T01:04:22;101603.13;;;4.49;100.00
63006;BME280;53704;52.532;6.426;2023-03-29T01:09:49;101607.88;;;4.44;100.00
63006;BME280;53704;52.532;6.426;2023-03-29T01:12:24;101605.88;;;4.48;100.00
63006;BME280;53704;52.532;6.426;2023-03-29T01:15:07;101604.69;;;4.52;100.00
63006;BME280;53704;52.532;6.426;2023-03-29T01:17:34;101612.59;;;4.66;100.00
63006;BME280;53704;52.532;6.426;2023-03-29T01:20:08;101601.94;;;4.53;100.00
63006;BME280;53704;52.532;6.426;2023-03-29T01:25:39;101590.53;;;4.51;100.00
63006;BME280;53704;52.532;6.426;2023-03-29T01:28:13;101588.69;;;4.39;100.00
63006;BME280;53704;52.532;6.426;2023-03-29T01:30:43;101581.13;;;4.46;100.00
63006;BME280;53704;52.532;6.426;2023-03-29T01:33:28;101564.38;;;4.44;100.00
63006;BME280;53704;52.532;6.426;2023-03-29T01:36:01;101558.84;;;4.47;100.00
63006;BME280;53704;52.532;6.426;2023-03-29T01:38:35;101553.09;;;4.53;100.00
63006;BME280;53704;52.532;6.426;2023-03-29T01:41:03;101552.97;;;4.42;100.00
63006;BME280;53704;52.532;6.426;2023-03-29T01:43:47;101545.41;;;4.35;100.00
63006;BME280;53704;52.532;6.426;2023-03-29T01:46:50;101556.50;;;4.55;100.00
63006;BME280;53704;52.532;6.426;2023-03-29T01:49:50;101547.84;;;4.51;100.00
63006;BME280;53704;52.532;6.426;2023-03-29T01:52:16;101560.56;;;4.48;100.00
63006;BME280;53704;52.532;6.426;2023-03-29T01:55:09;101550.31;;;4.55;100.00
63006;BME280;53704;52.532;6.426;2023-03-29T01:57:37;101548.28;;;4.45;100.00
63006;BME280;53704;52.532;6.426;2023-03-29T02:00:07;101544.13;;;4.54;100.00
63006;BME280;53704;52.532;6.426;2023-03-29T02:02:37;101546.78;;;4.67;100.00
63006;BME280;53704;52.532;6.426;2023-03-29T02:05:06;101540.06;;;4.48;100.00
63006;BME280;53704;52.532;6.426;2023-03-29T02:07:35;101539.66;;;4.42;100.00
63006;BME280;53704;52.532;6.426;2023-03-29T02:10:03;101536.13;;;4.54;100.00
63006;BME280;53704;52.532;6.426;2023-03-29T02:12:30;101542.63;;;4.50;100.00
63006;BME280;53704;52.532;6.426;2023-03-29T02:14:57;101532.91;;;4.49;100.00
63006;BME280;53704;52.532;6.426;2023-03-29T02:17:24;101528.03;;;4.56;100.00
63006;BME280;53704;52.532;6.426;2023-03-29T02:22:48;101523.09;;;4.62;100.00
63006;BME280;53704;52.532;6.426;2023-03-29T02:25:17;101519.50;;;4.63;100.00
63006;BME280;53704;52.532;6.426;2023-03-29T02:27:44;101516.81;;;4.63;100.00
63006;BME280;53704;52.532;6.426;2023-03-29T02:30:11;101521.19;;;4.64;100.00
63006;BME280;53704;52.532;6.426;2023-03-29T02:32:53;101526.19;;;4.69;100.00
63006;BME280;53704;52.532;6.426;2023-03-29T02:35:30;101517.25;;;4.57;100.00
63006;BME280;53704;52.532;6.426;2023-03-29T02:38:00;101517.44;;;4.67;100.00
63006;BME280;53704;52.532;6.426;2023-03-29T02:40:27;101513.34;;;4.87;100.00
63006;BME280;53704;52.532;6.426;2023-03-29T02:42:54;101508.38;;;4.69;100.00
63006;BME280;53704;52.532;6.426;2023-03-29T02:45:22;101502.59;;;4.76;100.00
63006;BME280;53704;52.532;6.426;2023-03-29T02:47:53;101508.25;;;4.71;100.00
63006;BME280;53704;52.532;6.426;2023-03-29T02:50:21;101495.34;;;4.65;100.00
63006;BME280;53704;52.532;6.426;2023-03-29T02:52:53;101491.19;;;4.74;100.00
63006;BME280;53704;52.532;6.426;2023-03-29T02:55:22;101487.47;;;4.76;100.00
63006;BME280;53704;52.532;6.426;2023-03-29T02:57:49;101480.75;;;4.70;100.00
63006;BME280;53704;52.532;6.426;2023-03-29T03:00:15;101478.50;;;4.64;100.00
63006;BME280;53704;52.532;6.426;2023-03-29T03:02:43;101475.47;;;4.82;100.00
63006;BME280;53704;52.532;6.426;2023-03-29T03:05:08;101476.97;;;4.86;100.00
63006;BME280;53704;52.532;6.426;2023-03-29T03:07:34;101476.78;;;4.76;100.00
63006;BME280;53704;52.532;6.426;2023-03-29T03:09:59;101475.47;;;4.82;100.00
63006;BME280;53704;52.532;6.426;2023-03-29T03:12:25;101470.44;;;4.90;100.00
63006;BME280;53704;52.532;6.426;2023-03-29T03:14:51;101472.25;;;4.89;100.00
63006;BME280;53704;52.532;6.426;2023-03-29T03:17:17;101473.69;;;4.82;100.00
63006;BME280;53704;52.532;6.426;2023-03-29T03:19:45;101464.19;;;4.78;100.00
63006;BME280;53704;52.532;6.426;2023-03-29T03:22:10;101462.16;;;4.82;100.00
63006;BME280;53704;52.532;6.426;2023-03-29T03:24:37;101459.50;;;4.69;100.00
63006;BME280;53704;52.532;6.426;2023-03-29T03:27:02;101454.13;;;4.82;100.00
63006;BME280;53704;52.532;6.426;2023-03-29T03:29:30;101453.22;;;4.70;100.00
63006;BME280;53704;52.532;6.426;2023-03-29T03:31:55;101453.81;;;4.86;100.00
63006;BME280;53704;52.532;6.426;2023-03-29T03:34:21;101447.63;;;4.86;100.00
63006;BME280;53704;52.532;6.426;2023-03-29T03:36:47;101443.81;;;4.77;100.00
63006;BME280;53704;52.532;6.426;2023-03-29T03:39:13;101455.13;;;4.81;100.00
63006;BME280;53704;52.532;6.426;2023-03-29T03:41:38;101448.38;;;4.88;100.00
63006;BME280;53704;52.532;6.426;2023-03-29T03:44:04;101453.00;;;4.73;100.00
63006;BME280;53704;52.532;6.426;2023-03-29T03:46:30;101447.66;;;4.73;100.00
63006;BME280;53704;52.532;6.426;2023-03-29T03:48:57;101447.00;;;4.82;100.00
63006;BME280;53704;52.532;6.426;2023-03-29T03:51:23;101448.72;;;4.70;100.00
63006;BME280;53704;52.532;6.426;2023-03-29T03:53:49;101438.13;;;4.82;100.00
63006;BME280;53704;52.532;6.426;2023-03-29T03:56:17;101439.97;;;4.81;100.00
63006;BME280;53704;52.532;6.426;2023-03-29T03:58:44;101439.84;;;4.83;100.00
63006;BME280;53704;52.532;6.426;2023-03-29T04:01:10;101439.34;;;4.65;100.00
63006;BME280;53704;52.532;6.426;2023-03-29T04:03:35;101437.34;;;4.68;100.00
63006;BME280;53704;52.532;6.426;2023-03-29T04:06:05;101435.50;;;4.69;100.00
63006;BME280;53704;52.532;6.426;2023-03-29T04:08:30;101435.72;;;4.66;100.00
63006;BME280;53704;52.532;6.426;2023-03-29T04:10:58;101439.00;;;4.69;100.00
63006;BME280;53704;52.532;6.426;2023-03-29T04:13:24;101428.88;;;4.75;100.00
63006;BME280;53704;52.532;6.426;2023-03-29T04:15:51;101429.00;;;4.73;100.00
63006;BME280;53704;52.532;6.426;2023-03-29T04:18:22;101436.03;;;4.74;100.00
63006;BME280;53704;52.532;6.426;2023-03-29T04:20:48;101432.06;;;4.80;100.00
63006;BME280;53704;52.532;6.426;2023-03-29T04:23:14;101423.34;;;4.78;100.00
63006;BME280;53704;52.532;6.426;2023-03-29T04:25:39;101427.91;;;4.76;100.00
63006;BME280;53704;52.532;6.426;2023-03-29T04:28:05;101429.41;;;4.80;100.00
63006;BME280;53704;52.532;6.426;2023-03-29T04:30:31;101431.13;;;4.68;100.00
63006;BME280;53704;52.532;6.426;2023-03-29T04:32:56;101421.63;;;4.77;100.00
63006;BME280;53704;52.532;6.426;2023-03-29T04:35:22;101434.03;;;5.02;100.00
63006;BME280;53704;52.532;6.426;2023-03-29T04:37:48;101419.22;;;4.85;100.00
63006;BME280;53704;52.532;6.426;2023-03-29T04:40:15;101414.00;;;4.83;100.00
63006;BME280;53704;52.532;6.426;2023-03-29T04:42:43;101410.78;;;4.67;100.00
63006;BME280;53704;52.532;6.426;2023-03-29T04:45:10;101416.78;;;4.82;100.00
63006;BME280;53704;52.532;6.426;2023-03-29T04:47:40;101418.84;;;4.78;100.00
63006;BME280;53704;52.532;6.426;2023-03-29T04:50:06;101428.00;;;4.74;100.00
63006;BME280;53704;52.532;6.426;2023-03-29T04:52:33;101420.56;;;4.79;100.00
63006;BME280;53704;52.532;6.426;2023-03-29T04:55:03;101416.28;;;5.01;100.00
63006;BME280;53704;52.532;6.426;2023-03-29T04:57:29;101416.41;;;4.99;100.00
63006;BME280;53704;52.532;6.426;2023-03-29T04:59:54;101418.50;;;4.83;100.00
63006;BME280;53704;52.532;6.426;2023-03-29T05:02:20;101416.94;;;4.67;100.00
63006;BME280;53704;52.532;6.426;2023-03-29T05:04:46;101421.66;;;4.64;100.00
63006;BME280;53704;52.532;6.426;2023-03-29T05:07:12;101417.31;;;4.87;100.00
63006;BME280;53704;52.532;6.426;2023-03-29T05:09:39;101415.34;;;4.65;100.00
63006;BME280;53704;52.532;6.426;2023-03-29T05:12:06;101423.13;;;4.68;100.00
63006;BME280;53704;52.532;6.426;2023-03-29T05:14:31;101423.66;;;4.73;100.00
63006;BME280;53704;52.532;6.426;2023-03-29T05:16:57;101425.25;;;4.76;100.00
63006;BME280;53704;52.532;6.426;2023-03-29T05:19:22;101413.84;;;4.98;100.00
63006;BME280;53704;52.532;6.426;2023-03-29T05:21:48;101415.16;;;4.92;100.00
63006;BME280;53704;52.532;6.426;2023-03-29T05:24:15;101413.78;;;4.86;100.00
63006;BME280;53704;52.532;6.426;2023-03-29T05:26:41;101414.88;;;4.84;100.00
63006;BME280;53704;52.532;6.426;2023-03-29T05:29:08;101412.38;;;4.94;100.00
63006;BME280;53704;52.532;6.426;2023-03-29T05:31:34;101411.81;;;5.01;100.00
63006;BME280;53704;52.532;6.426;2023-03-29T05:34:02;101407.84;;;4.83;100.00
63006;BME280;53704;52.532;6.426;2023-03-29T05:36:28;101402.44;;;4.96;100.00
63006;BME280;53704;52.532;6.426;2023-03-29T05:38:54;101402.16;;;4.87;100.00
63006;BME280;53704;52.532;6.426;2023-03-29T05:41:21;101397.22;;;4.94;100.00
63006;BME280;53704;52.532;6.426;2023-03-29T05:43:48;101388.16;;;4.97;100.00
63006;BME280;53704;52.532;6.426;2023-03-29T05:46:13;101389.56;;;4.89;100.00
63006;BME280;53704;52.532;6.426;2023-03-29T05:48:39;101399.84;;;4.83;100.00
63006;BME280;53704;52.532;6.426;2023-03-29T05:51:05;101401.94;;;4.91;100.00
63006;BME280;53704;52.532;6.426;2023-03-29T05:53:31;101393.25;;;5.00;100.00
63006;BME280;53704;52.532;6.426;2023-03-29T05:55:57;101403.59;;;5.04;100.00
63006;BME280;53704;52.532;6.426;2023-03-29T05:58:23;101402.59;;;5.05;100.00
63006;BME280;53704;52.532;6.426;2023-03-29T06:00:51;101406.38;;;5.03;100.00
63006;BME280;53704;52.532;6.426;2023-03-29T06:03:22;101402.28;;;5.10;100.00
63006;BME280;53704;52.532;6.426;2023-03-29T06:06:01;101396.31;;;5.06;100.00
63006;BME280;53704;52.532;6.426;2023-03-29T06:08:28;101376.50;;;4.98;100.00
63006;BME280;53704;52.532;6.426;2023-03-29T06:10:58;101382.19;;;5.17;100.00
63006;BME280;53704;52.532;6.426;2023-03-29T06:13:25;101391.28;;;5.26;100.00
63006;BME280;53704;52.532;6.426;2023-03-29T06:15:54;101398.13;;;5.30;100.00
63006;BME280;53704;52.532;6.426;2023-03-29T06:18:19;101394.19;;;5.23;100.00
63006;BME280;53704;52.532;6.426;2023-03-29T06:20:49;101394.69;;;5.28;100.00
63006;BME280;53704;52.532;6.426;2023-03-29T06:23:18;101386.41;;;5.20;100.00
63006;BME280;53704;52.532;6.426;2023-03-29T06:25:45;101399.06;;;5.29;100.00
63006;BME280;53704;52.532;6.426;2023-03-29T06:28:14;101391.09;;;5.40;100.00
63006;BME280;53704;52.532;6.426;2023-03-29T06:30:40;101399.09;;;5.40;100.00
63006;BME280;53704;52.532;6.426;2023-03-29T06:33:07;101394.22;;;5.34;100.00
63006;BME280;53704;52.532;6.426;2023-03-29T06:35:34;101390.91;;;5.55;100.00
63006;BME280;53704;52.532;6.426;2023-03-29T06:38:00;101392.59;;;5.56;100.00
63006;BME280;53704;52.532;6.426;2023-03-29T06:40:26;101398.66;;;5.47;100.00
63006;BME280;53704;52.532;6.426;2023-03-29T06:42:53;101396.69;;;5.49;100.00
63006;BME280;53704;52.532;6.426;2023-03-29T06:45:26;101398.72;;;5.34;100.00
63006;BME280;53704;52.532;6.426;2023-03-29T06:47:53;101393.38;;;5.34;100.00
63006;BME280;53704;52.532;6.426;2023-03-29T06:50:19;101397.94;;;5.56;100.00
63006;BME280;53704;52.532;6.426;2023-03-29T06:52:45;101393.56;;;5.55;100.00
63006;BME280;53704;52.532;6.426;2023-03-29T06:55:12;101394.56;;;5.54;100.00
63006;BME280;53704;52.532;6.426;2023-03-29T06:57:38;101396.47;;;5.52;100.00
63006;BME280;53704;52.532;6.426;2023-03-29T07:00:05;101410.13;;;5.71;100.00
63006;BME280;53704;52.532;6.426;2023-03-29T07:02:42;101404.66;;;5.61;100.00
63006;BME280;53704;52.532;6.426;2023-03-29T07:05:08;101402.00;;;5.73;100.00
63006;BME280;53704;52.532;6.426;2023-03-29T07:07:42;101402.72;;;5.64;100.00
63006;BME280;53704;52.532;6.426;2023-03-29T07:10:24;101413.19;;;5.89;100.00
63006;BME280;53704;52.532;6.426;2023-03-29T07:12:52;101415.16;;;5.87;100.00
63006;BME280;53704;52.532;6.426;2023-03-29T07:15:19;101424.50;;;5.93;100.00
63006;BME280;53704;52.532;6.426;2023-03-29T07:17:48;101419.00;;;5.83;100.00
63006;BME280;53704;52.532;6.426;2023-03-29T07:20:14;101425.66;;;6.02;100.00
63006;BME280;53704;52.532;6.426;2023-03-29T07:22:43;101423.47;;;6.07;100.00
63006;BME280;53704;52.532;6.426;2023-03-29T07:25:10;101427.72;;;6.09;100.00
63006;BME280;53704;52.532;6.426;2023-03-29T07:27:37;101427.59;;;6.11;100.00
63006;BME280;53704;52.532;6.426;2023-03-29T07:30:04;101422.00;;;6.03;100.00
63006;BME280;53704;52.532;6.426;2023-03-29T07:32:34;101436.47;;;6.11;100.00
63006;BME280;53704;52.532;6.426;2023-03-29T07:35:00;101439.75;;;6.15;100.00
63006;BME280;53704;52.532;6.426;2023-03-29T07:37:26;101431.50;;;6.18;100.00
63006;BME280;53704;52.532;6.426;2023-03-29T07:39:52;101435.75;;;6.21;100.00
63006;BME280;53704;52.532;6.426;2023-03-29T07:42:18;101435.63;;;6.22;100.00
63006;BME280;53704;52.532;6.426;2023-03-29T07:44:43;101437.94;;;6.27;100.00
63006;BME280;53704;52.532;6.426;2023-03-29T07:47:08;101436.34;;;6.36;100.00
63006;BME280;53704;52.532;6.426;2023-03-29T07:49:34;101431.13;;;6.34;100.00
63006;BME280;53704;52.532;6.426;2023-03-29T07:52:00;101436.13;;;6.50;100.00
63006;BME280;53704;52.532;6.426;2023-03-29T07:54:25;101435.03;;;6.41;100.00
63006;BME280;53704;52.532;6.426;2023-03-29T07:56:51;101438.41;;;6.55;100.00
63006;BME280;53704;52.532;6.426;2023-03-29T07:59:16;101435.88;;;6.64;100.00
63006;BME280;53704;52.532;6.426;2023-03-29T08:01:42;101427.09;;;6.62;100.00
63006;BME280;53704;52.532;6.426;2023-03-29T08:04:08;101430.75;;;6.73;100.00
63006;BME280;53704;52.532;6.426;2023-03-29T08:06:34;101419.91;;;6.85;100.00
63006;BME280;53704;52.532;6.426;2023-03-29T08:08:59;101431.34;;;6.76;100.00
63006;BME280;53704;52.532;6.426;2023-03-29T08:11:25;101439.84;;;6.81;100.00
63006;BME280;53704;52.532;6.426;2023-03-29T08:13:51;101429.16;;;6.93;100.00
63006;BME280;53704;52.532;6.426;2023-03-29T08:16:17;101436.25;;;7.15;100.00
63006;BME280;53704;52.532;6.426;2023-03-29T08:18:42;101435.97;;;7.18;100.00
63006;BME280;53704;52.532;6.426;2023-03-29T08:21:08;101435.41;;;7.14;100.00
63006;BME280;53704;52.532;6.426;2023-03-29T08:23:34;101431.16;;;7.12;100.00
63006;BME280;53704;52.532;6.426;2023-03-29T08:26:00;101431.41;;;7.41;100.00
63006;BME280;53704;52.532;6.426;2023-03-29T08:28:25;101432.03;;;7.33;100.00
63006;BME280;53704;52.532;6.426;2023-03-29T08:30:51;101425.97;;;7.31;100.00
63006;BME280;53704;52.532;6.426;2023-03-29T08:33:17;101417.09;;;7.31;100.00
63006;BME280;53704;52.532;6.426;2023-03-29T08:35:43;101420.63;;;7.52;100.00
63006;BME280;53704;52.532;6.426;2023-03-29T08:38:08;101417.50;;;7.68;100.00
63006;BME280;53704;52.532;6.426;2023-03-29T08:40:34;101415.00;;;7.55;100.00
63006;BME280;53704;52.532;6.426;2023-03-29T08:48:31;101420.19;;;7.89;100.00
63006;BME280;53704;52.532;6.426;2023-03-29T08:51:30;101415.28;;;7.94;100.00
63006;BME280;53704;52.532;6.426;2023-03-29T08:54:39;101407.53;;;8.01;100.00
63006;BME280;53704;52.532;6.426;2023-03-29T08:57:03;101403.13;;;8.21;100.00
63006;BME280;53704;52.532;6.426;2023-03-29T08:59:32;101405.13;;;8.19;100.00
63006;BME280;53704;52.532;6.426;2023-03-29T09:01:59;101401.59;;;8.28;100.00
63006;BME280;53704;52.532;6.426;2023-03-29T09:04:29;101395.44;;;8.38;100.00
63006;BME280;53704;52.532;6.426;2023-03-29T09:06:55;101401.00;;;8.46;100.00
63006;BME280;53704;52.532;6.426;2023-03-29T09:09:24;101401.00;;;8.46;100.00
63006;BME280;53704;52.532;6.426;2023-03-29T09:15:04;101385.94;;;8.64;100.00
63006;BME280;53704;52.532;6.426;2023-03-29T09:17:52;101386.69;;;8.76;100.00
63006;BME280;53704;52.532;6.426;2023-03-29T09:28:52;101412.16;;;9.01;100.00
63006;BME280;53704;52.532;6.426;2023-03-29T09:31:26;101415.56;;;9.13;100.00
63006;BME280;53704;52.532;6.426;2023-03-29T09:33:58;101409.63;;;9.10;100.00
63006;BME280;53704;52.532;6.426;2023-03-29T09:38:52;101409.22;;;9.04;100.00
63006;BME280;53704;52.532;6.426;2023-03-29T09:43:51;101413.31;;;9.38;100.00
63006;BME280;53704;52.532;6.426;2023-03-29T09:46:23;101404.53;;;9.36;100.00
63006;BME280;53704;52.532;6.426;2023-03-29T09:48:49;101412.47;;;9.28;100.00
63006;BME280;53704;52.532;6.426;2023-03-29T09:51:18;101407.34;;;9.34;100.00
63006;BME280;53704;52.532;6.426;2023-03-29T09:53:47;101405.81;;;9.22;100.00
63006;BME280;53704;52.532;6.426;2023-03-29T09:56:12;101404.25;;;9.49;100.00
63006;BME280;53704;52.532;6.426;2023-03-29T09:58:41;101404.13;;;9.60;100.00
63006;BME280;53704;52.532;6.426;2023-03-29T10:01:07;101399.84;;;9.57;100.00
63006;BME280;53704;52.532;6.426;2023-03-29T10:03:35;101390.38;;;9.73;100.00
63006;BME280;53704;52.532;6.426;2023-03-29T10:06:02;101380.31;;;9.65;100.00
63006;BME280;53704;52.532;6.426;2023-03-29T10:08:38;101382.44;;;9.71;100.00
63006;BME280;53704;52.532;6.426;2023-03-29T10:11:20;101382.28;;;9.73;100.00
63006;BME280;53704;52.532;6.426;2023-03-29T10:13:49;101391.16;;;9.93;100.00
63006;BME280;53704;52.532;6.426;2023-03-29T10:16:24;101384.34;;;9.99;100.00
63006;BME280;53704;52.532;6.426;2023-03-29T10:18:53;101375.84;;;10.03;100.00
63006;BME280;53704;52.532;6.426;2023-03-29T10:21:20;101376.34;;;10.17;100.00
63006;BME280;53704;52.532;6.426;2023-03-29T10:23:47;101375.59;;;10.34;100.00
63006;BME280;53704;52.532;6.426;2023-03-29T10:26:30;101377.28;;;10.35;100.00
63006;BME280;53704;52.532;6.426;2023-03-29T10:28:57;101381.13;;;10.32;100.00
63006;BME280;53704;52.532;6.426;2023-03-29T10:31:28;101386.47;;;10.42;100.00
63006;BME280;53704;52.532;6.426;2023-03-29T10:33:56;101379.84;;;10.64;100.00
63006;BME280;53704;52.532;6.426;2023-03-29T10:36:25;101380.56;;;10.84;100.00
63006;BME280;53704;52.532;6.426;2023-03-29T10:38:53;101377.47;;;10.79;100.00
63006;BME280;53704;52.532;6.426;2023-03-29T10:41:21;101385.34;;;10.91;100.00
63006;BME280;53704;52.532;6.426;2023-03-29T10:43:49;101360.25;;;11.08;100.00
63006;BME280;53704;52.532;6.426;2023-03-29T10:49:03;101362.25;;;11.42;100.00
63006;BME280;53704;52.532;6.426;2023-03-29T10:51:31;101355.50;;;11.64;100.00
63006;BME280;53704;52.532;6.426;2023-03-29T10:53:57;101356.69;;;11.70;100.00
63006;BME280;53704;52.532;6.426;2023-03-29T10:56:38;101352.22;;;11.79;100.00
63006;BME280;53704;52.532;6.426;2023-03-29T11:02:27;101353.66;;;11.91;100.00
63006;BME280;53704;52.532;6.426;2023-03-29T11:19:05;101344.44;;;12.95;100.00
63006;BME280;53704;52.532;6.426;2023-03-29T11:21:54;101349.16;;;13.01;100.00
63006;BME280;53704;52.532;6.426;2023-03-29T11:29:53;101348.47;;;13.08;100.00
63006;BME280;53704;52.532;6.426;2023-03-29T11:32:57;101350.88;;;13.19;100.00
63006;BME280;53704;52.532;6.426;2023-03-29T11:41:21;101353.59;;;13.35;100.00
63006;BME280;53704;52.532;6.426;2023-03-29T11:43:58;101344.75;;;13.09;100.00
63006;BME280;53704;52.532;6.426;2023-03-29T11:46:52;101328.03;;;13.21;100.00
63006;BME280;53704;52.532;6.426;2023-03-29T11:55:19;101318.91;;;13.64;100.00
63006;BME280;53704;52.532;6.426;2023-03-29T11:57:54;101318.50;;;13.91;100.00
63006;BME280;53704;52.532;6.426;2023-03-29T12:03:01;101329.47;;;14.06;100.00
63006;BME280;53704;52.532;6.426;2023-03-29T12:05:38;101327.81;;;13.89;100.00
63006;BME280;53704;52.532;6.426;2023-03-29T12:08:11;101319.03;;;13.87;100.00
63006;BME280;53704;52.532;6.426;2023-03-29T12:10:44;101315.34;;;14.19;100.00
63006;BME280;53704;52.532;6.426;2023-03-29T12:13:23;101307.53;;;13.85;100.00
63006;BME280;53704;52.532;6.426;2023-03-29T12:16:05;101312.31;;;13.74;100.00
63006;BME280;53704;52.532;6.426;2023-03-29T12:18:40;101304.41;;;14.13;100.00
63006;BME280;53704;52.532;6.426;2023-03-29T12:21:11;101300.88;;;14.04;100.00
63006;BME280;53704;52.532;6.426;2023-03-29T12:23:40;101302.34;;;14.15;100.00
63006;BME280;53704;52.532;6.426;2023-03-29T12:32:03;101314.91;;;14.47;100.00
63006;BME280;53704;52.532;6.426;2023-03-29T12:39:36;101311.63;;;14.20;100.00
63006;BME280;53704;52.532;6.426;2023-03-29T12:42:17;101308.53;;;14.32;100.00
63006;BME280;53704;52.532;6.426;2023-03-29T12:44:48;101298.63;;;14.16;100.00
63006;BME280;53704;52.532;6.426;2023-03-29T12:47:21;101296.63;;;14.09;100.00
63006;BME280;53704;52.532;6.426;2023-03-29T12:49:51;101300.63;;;14.22;100.00
63006;BME280;53704;52.532;6.426;2023-03-29T12:52:25;101290.66;;;14.54;100.00
63006;BME280;53704;52.532;6.426;2023-03-29T12:54:56;101290.66;;;14.54;100.00
63006;BME280;53704;52.532;6.426;2023-03-29T12:57:38;101286.13;;;14.77;100.00
63006;BME280;53704;52.532;6.426;2023-03-29T13:00:18;101286.34;;;14.91;100.00
63006;BME280;53704;52.532;6.426;2023-03-29T13:02:44;101289.44;;;15.26;100.00
63006;BME280;53704;52.532;6.426;2023-03-29T13:05:29;101284.78;;;14.73;100.00
63006;BME280;53704;52.532;6.426;2023-03-29T13:07:55;101277.91;;;14.86;100.00
63006;BME280;53704;52.532;6.426;2023-03-29T13:12:55;101271.59;;;14.70;100.00
63006;BME280;53704;52.532;6.426;2023-03-29T13:15:23;101267.19;;;14.92;100.00
63006;BME280;53704;52.532;6.426;2023-03-29T13:20:49;101267.38;;;14.68;100.00
63006;BME280;53704;52.532;6.426;2023-03-29T13:31:55;101235.00;;;15.12;100.00
63006;BME280;53704;52.532;6.426;2023-03-29T13:34:39;101241.94;;;15.30;100.00
63006;BME280;53704;52.532;6.426;2023-03-29T13:37:27;101242.84;;;15.07;100.00
63006;BME280;53704;52.532;6.426;2023-03-29T13:39:56;101244.16;;;15.11;100.00
63006;BME280;53704;52.532;6.426;2023-03-29T13:45:14;101237.69;;;14.74;100.00
63006;BME280;53704;52.532;6.426;2023-03-29T13:47:44;101232.28;;;14.74;100.00
63006;BME280;53704;52.532;6.426;2023-03-29T13:50:16;101228.22;;;14.70;100.00
63006;BME280;53704;52.532;6.426;2023-03-29T13:52:57;101219.75;;;14.73;100.00
63006;BME280;53704;52.532;6.426;2023-03-29T13:55:25;101214.78;;;15.00;100.00
63006;BME280;53704;52.532;6.426;2023-03-29T13:57:59;101217.75;;;15.05;100.00
63006;BME280;53704;52.532;6.426;2023-03-29T14:00:39;101214.84;;;14.92;100.00
63006;BME280;53704;52.532;6.426;2023-03-29T14:03:12;101215.88;;;14.91;100.00
63006;BME280;53704;52.532;6.426;2023-03-29T14:05:41;101223.84;;;14.69;100.00
63006;BME280;53704;52.532;6.426;2023-03-29T14:10:44;101212.03;;;14.62;100.00
63006;BME280;53704;52.532;6.426;2023-03-29T14:13:15;101206.00;;;14.98;100.00
63006;BME280;53704;52.532;6.426;2023-03-29T14:15:44;101205.69;;;14.93;100.00
63006;BME280;53704;52.532;6.426;2023-03-29T14:18:15;101206.66;;;14.77;100.00
63006;BME280;53704;52.532;6.426;2023-03-29T14:20:46;101205.91;;;14.68;100.00
63006;BME280;53704;52.532;6.426;2023-03-29T14:23:20;101205.44;;;14.64;100.00
63006;BME280;53704;52.532;6.426;2023-03-29T14:25:47;101205.44;;;14.64;100.00
63006;BME280;53704;52.532;6.426;2023-03-29T14:28:26;101202.19;;;14.69;100.00
63006;BME280;53704;52.532;6.426;2023-03-29T14:30:52;101207.53;;;14.77;100.00
63006;BME280;53704;52.532;6.426;2023-03-29T14:33:30;101204.09;;;14.83;100.00
63006;BME280;53704;52.532;6.426;2023-03-29T14:36:02;101191.81;;;14.73;100.00
63006;BME280;53704;52.532;6.426;2023-03-29T14:38:30;101196.97;;;14.36;100.00
63006;BME280;53704;52.532;6.426;2023-03-29T14:41:00;101176.75;;;14.70;100.00
63006;BME280;53704;52.532;6.426;2023-03-29T14:43:27;101180.81;;;14.89;100.00
63006;BME280;53704;52.532;6.426;2023-03-29T14:45:56;101177.69;;;14.54;100.00